Aviation Digital Data Service (ADDS)

Output produced by METARs form (1952 UTC 30 September 2014)
found at http://aviationweather.gov/adds/metars/
 
KMHT 301739Z 3018/0118 10005KT P6SM BKN008 
     FM302000 07005KT P6SM BKN010 
     FM010000 04004KT P6SM BKN008 
     FM010200 04007KT 3SM -DZ BR OVC008 
     FM011200 03007KT 3SM -RA BR OVC003 
     FM011400 02009KT 3SM -RA BR OVC008